2000 ASTRIDE (1999357S08076)


On this page: IBTrACS data - Map and Plots - Positions - Intensities - Original source data

Summary

Start Dec 23
End Jan 3
Basin SI
LMI 65 kt
Sources jtwc_sh
reunion
neumann
In WMO? Yes
Previous storm 1999 TD1214 (WP)
Previous in basin 2000 JOHN (SI)
Concurrent storms 2000 ASTRIDE (SI)
2000 BABIOLA (SI)
Next in basin 2000 BABIOLA (SI)
Next storm 2000 BABIOLA (SI)

top of page IBTrACS Data: File Access

Image of storm

top of page Plots:

Map of storm track will not appear if FTP is down
Time series of cyclone Maximum Sustained Wind will not appear if FTP is down
Time series of cyclone Minimum Central Pressure will not appear if FTP is down

top of page Track Data:Position

jtwc_sh reunion neumann
Date Lat Lon Lat Lon Lat Lon
1999-12-23 06:00:00 -8.2 75.5
1999-12-23 12:00:00 -9.1 75.6 -9.0 75.8 -9.1 75.6
1999-12-23 18:00:00 -9.9 75.0 -9.7 75.5 -9.9 75.0
1999-12-24 00:00:00 -10.5 74.4 -10.3 74.8 -10.5 74.4
1999-12-24 06:00:00 -11.2 73.8 -11.1 74.3 -11.2 73.8
1999-12-24 12:00:00 -11.9 72.9 -11.9 73.1 -11.9 72.9
1999-12-24 18:00:00 -12.1 72.0 -12.1 72.1 -12.1 72.0
1999-12-25 00:00:00 -12.3 70.9 -12.1 71.1 -12.3 70.9
1999-12-25 06:00:00 -12.3 70.1 -12.2 70.0 -12.3 70.1
1999-12-25 12:00:00 -12.5 69.0 -12.3 68.6 -12.5 69.0
1999-12-25 18:00:00 -12.9 67.9 -12.5 67.8 -12.9 67.9
1999-12-26 00:00:00 -13.1 66.9 -12.6 66.9 -13.1 66.9
1999-12-26 06:00:00 -13.2 65.8 -12.9 65.7 -13.2 65.8
1999-12-26 12:00:00 -13.5 64.7 -13.3 64.8 -13.5 64.7
1999-12-26 18:00:00 -14.0 63.9 -13.8 64.0 -14.0 63.9
1999-12-27 00:00:00 -14.2 63.0 -14.1 63.0 -14.2 63.0
1999-12-27 06:00:00 -14.3 62.1 -14.3 62.2 -14.3 62.1
1999-12-27 12:00:00 -14.5 61.3 -14.4 61.4 -14.5 61.3
1999-12-27 18:00:00 -14.7 60.6 -14.5 60.3 -14.7 60.6
1999-12-28 00:00:00 -14.8 59.7 -14.7 59.3 -14.8 59.7
1999-12-28 06:00:00 -15.0 58.7 -15.0 58.3 -15.0 58.7
1999-12-28 12:00:00 -15.1 57.9 -15.2 57.8 -15.1 57.9
1999-12-28 18:00:00 -15.3 57.2 -15.4 57.2 -15.3 57.2
1999-12-29 00:00:00 -15.4 56.7 -15.6 56.7 -15.4 56.7
1999-12-29 06:00:00 -15.5 56.2 -15.7 56.2 -15.5 56.2
jtwc_sh reunion neumann
1999-12-29 12:00:00 -15.5 55.7 -15.7 55.8 -15.5 55.7
1999-12-29 18:00:00 -15.4 55.2 -15.6 55.4 -15.4 55.2
1999-12-30 00:00:00 -15.3 54.6 -15.4 55.0 -15.3 54.6
1999-12-30 06:00:00 -15.1 54.0 -15.0 54.3 -15.1 54.0
1999-12-30 12:00:00 -14.8 53.3 -14.8 53.0 -14.8 53.3
1999-12-30 18:00:00 -14.5 52.5 -14.2 52.2 -14.5 52.5
1999-12-31 00:00:00 -14.1 51.7 -13.5 51.6 -14.1 51.7
1999-12-31 06:00:00 -13.7 51.2 -13.1 51.1 -13.7 51.2
1999-12-31 12:00:00 -13.4 50.7 -12.9 50.6 -13.4 50.7
1999-12-31 18:00:00 -13.0 50.0 -12.7 49.9 -13.0 50.0
2000-01-01 00:00:00 -12.8 49.0 -12.7 49.0 -12.8 49.0
2000-01-01 06:00:00 -12.7 47.9 -12.8 47.9 -12.7 47.9
2000-01-01 12:00:00 -12.7 47.2 -12.5 47.2 -12.7 47.2
2000-01-01 18:00:00 -12.7 46.5 -12.5 46.7 -12.7 46.5
2000-01-02 00:00:00 -12.7 45.8 -12.8 45.9 -12.7 45.8
2000-01-02 06:00:00 -12.8 45.0 -13.1 45.0 -12.8 45.0
2000-01-02 12:00:00 -12.9 44.0 -13.5 44.0 -12.9 44.0
2000-01-02 18:00:00 -13.0 42.5 -13.8 42.6 -13.0 42.5
2000-01-03 00:00:00 -13.1 40.9 -13.7 41.4 -13.1 40.9
2000-01-03 06:00:00 -13.6 40.3
2000-01-03 12:00:00 -13.2 39.5

top of pageTrack Data:Intensity

jtwc_sh reunion neumann
Date Wind Pres Wind Pres Wind Pres
1999-12-23 06:00:00 20. 1007.
1999-12-23 12:00:00 20. 20. 1005. 20.
1999-12-23 18:00:00 20. 20. 1005. 20.
1999-12-24 00:00:00 25. 20. 1005. 25.
1999-12-24 06:00:00 25. 23. 1004. 25.
1999-12-24 12:00:00 25. 23. 1004. 25.
1999-12-24 18:00:00 25. 25. 1002. 25.
1999-12-25 00:00:00 30. 25. 1000. 30.
1999-12-25 06:00:00 35. 25. 1000. 35.
1999-12-25 12:00:00 45. 30. 998. 45.
1999-12-25 18:00:00 45. 35. 995. 45.
1999-12-26 00:00:00 50. 40. 992. 50.
1999-12-26 06:00:00 50. 40. 990. 50.
1999-12-26 12:00:00 55. 45. 988. 55.
1999-12-26 18:00:00 55. 50. 985. 55.
1999-12-27 00:00:00 55. 50. 985. 55.
1999-12-27 06:00:00 60. 50. 985. 60.
1999-12-27 12:00:00 65. 50. 985. 65.
1999-12-27 18:00:00 65. 45. 988. 65.
1999-12-28 00:00:00 65. 40. 990. 65.
1999-12-28 06:00:00 60. 40. 992. 60.
1999-12-28 12:00:00 55. 40. 992. 55.
1999-12-28 18:00:00 55. 40. 992. 55.
1999-12-29 00:00:00 55. 45. 988. 55.
1999-12-29 06:00:00 55. 50. 985. 55.
jtwc_sh reunion neumann
1999-12-29 12:00:00 55. 50. 985. 55.
1999-12-29 18:00:00 50. 50. 985. 50.
1999-12-30 00:00:00 45. 50. 985. 45.
1999-12-30 06:00:00 45. 50. 985. 45.
1999-12-30 12:00:00 45. 50. 985. 45.
1999-12-30 18:00:00 40. 45. 988. 40.
1999-12-31 00:00:00 40. 45. 988. 40.
1999-12-31 06:00:00 40. 40. 992. 40.
1999-12-31 12:00:00 40. 40. 992. 40.
1999-12-31 18:00:00 45. 35. 995. 45.
2000-01-01 00:00:00 40. 25. 1000. 40.
2000-01-01 06:00:00 35. 25. 1000. 35.
2000-01-01 12:00:00 35. 25. 1000. 35.
2000-01-01 18:00:00 25. 30. 998. 25.
2000-01-02 00:00:00 25. 33. 996. 25.
2000-01-02 06:00:00 25. 35. 995. 25.
2000-01-02 12:00:00 25. 35. 995. 25.
2000-01-02 18:00:00 25. 35. 995. 25.
2000-01-03 00:00:00 25. 33. 996. 25.
2000-01-03 06:00:00 30. 998.
2000-01-03 12:00:00 25. 1000.

top of page Links to source data

Source Source file Format
jtwc_sh bsh032000.txt ATCF
reunion WMO-Best-Tracks.txt:Line=18745:astride WMO (old format)
neumann tracks.sh:Storm=1177:ASTRIDE:03S:BSH032000 HURDAT